4XCWC LLHZ-LLHZ

Flight info

Callsign 4XCWC
Flight time 0h 1m
Altitude 800
Route CVFR
Aircraft C172/L-VD/A

Departure

Time 2026-04-13 17:07
Airport Herzliya Airport (LLHZ)

Arrival

Time 2026-04-13 17:08
Airport Herzliya Airport (LLHZ)
Time Latitude Longitude Altitude Speed Heading
2026-04-13 17:01 32.17874 34.83805 116 ft 0 kts 290°
2026-04-13 17:05 32.17890 34.83813 115 ft 4 kts 103°
2026-04-13 17:05 32.17912 34.83829 119 ft 8 kts 358°
2026-04-13 17:05 32.17934 34.83786 118 ft 7 kts 289°
2026-04-13 17:06 32.18009 34.83532 103 ft 60 kts 289°
2026-04-13 17:06 32.18165 34.82952 236 ft 77 kts 296°
2026-04-13 17:06 32.18537 34.82703 409 ft 74 kts 12°
2026-04-13 17:06 32.19073 34.82751 616 ft 77 kts
2026-04-13 17:07 32.19505 34.83082 805 ft 86 kts 56°
2026-04-13 17:07 32.19249 34.83814 814 ft 115 kts 116°
2026-04-13 17:07 32.18839 34.84597 819 ft 104 kts 117°
2026-04-13 17:07 32.18425 34.85261 886 ft 99 kts 137°
2026-04-13 17:08 32.17745 34.85285 768 ft 110 kts 204°
2026-04-13 17:08 32.17523 34.84668 541 ft 80 kts 303°
2026-04-13 17:08 32.17781 34.84170 268 ft 69 kts 303°
2026-04-13 17:08 32.17955 34.83706 113 ft 49 kts 291°
2026-04-13 17:09 32.18114 34.83220 99 ft 78 kts 309°
2026-04-13 17:09 32.18297 34.82717 319 ft 68 kts 351°
2026-04-13 17:09 32.18770 34.82785 461 ft 75 kts 14°
2026-04-13 17:09 32.19258 34.83007 616 ft 77 kts 28°
2026-04-13 17:10 32.19304 34.83655 707 ft 105 kts 117°
2026-04-13 17:10 32.19136 34.84009 671 ft 114 kts 115°
2026-04-13 17:11 32.19078 34.84119 692 ft 114 kts 119°
2026-04-13 17:12 32.18630 34.84884 801 ft 102 kts 112°
2026-04-13 17:12 32.18074 34.85259 756 ft 105 kts 202°
2026-04-13 17:12 32.17511 34.84833 631 ft 88 kts 264°
2026-04-13 17:12 32.17729 34.84239 337 ft 75 kts 311°
2026-04-13 17:13 32.17943 34.83728 115 ft 60 kts 299°
2026-04-13 17:13 32.18091 34.83312 140 ft 63 kts 296°
2026-04-13 17:13 32.18161 34.83012 183 ft 71 kts 296°
2026-04-13 17:14 32.18219 34.82824 229 ft 73 kts 308°
2026-04-13 17:14 32.18622 34.82689 372 ft 74 kts 14°
2026-04-13 17:15 32.19165 34.82794 491 ft 86 kts
2026-04-13 17:15 32.19676 34.83099 719 ft 89 kts 61°
2026-04-13 17:15 32.19488 34.83842 781 ft 110 kts 120°
2026-04-13 17:15 32.19026 34.84504 880 ft 102 kts 144°
2026-04-13 17:16 32.18373 34.84362 879 ft 88 kts 148°
2026-04-13 17:16 32.18152 34.84998 774 ft 85 kts 129°
2026-04-13 17:16 32.17620 34.85001 635 ft 84 kts 265°
2026-04-13 17:16 32.17720 34.84370 399 ft 71 kts 300°
2026-04-13 17:17 32.17907 34.83842 128 ft 63 kts 300°
2026-04-13 17:17 32.18016 34.83505 101 ft 30 kts 288°
2026-04-13 17:17 32.18049 34.83337 99 ft 11 kts 227°
2026-04-13 17:17 32.18019 34.83320 99 ft 0 kts 198°